Portada
METAR-TAF:

METAR-TAF

Aeropuertos :

Aeropuerto Internacional Príncipe Said Ibrahim

Moroni, Comoras

latitud: 11-32S, longitud: 043-16E, altitud: 29 m

Observación

El informe se hizo hace 15 horas y 50 minutos, a las 14:00 UTC
Viento 4 kt del oeste-suroeste
Temperatura 29°C
Humedad 62%
Presión 1015 hPa
Visibilidad 10 km o más

METAR: FMCH 271400Z 25004KT 9999 29/21 Q1015 NOSIG

Hora: 08:50 (05:50 UTC)

Pronóstico

El informe se hizo hace 50 minutos, a las 05:00 UTC
Pronóstico válido del 28 a las 06 UTC al 29 a las 12 UTC
Viento 10 kt del suroeste
Visibilidad 10 km o más
Escasas nubes a una altura de 2000 ft
Evolucionando progresivamente
del 28 a las 14 UTC al 28 a las 16 UTC
Viento 3 kt del este-sureste
Evolucionando progresivamente
del 29 a las 05 UTC al 29 a las 07 UTC
Viento 16 kt del sur-suroeste

TAF: FMCH 280500Z 2806/2912 23010KT 9999 FEW020 BECMG 2814/2816 11003KT BECMG 2905/2907 20016KT

Observaciones y pronósticos meteorológicos de más de 4000 aeropuertos (mensajes METAR y TAF).

Los puntos amarillos y rojos representan las estaciones disponibles.

Ponga el ratón en el punto deseado para ver el nombre de la estación.

Haga clic para ver las observaciones y los pronósticos meteorológicos.

Para cambiar el mapa : haga clic en los botones verdes con una cruz de color negro para hacer un zoom, en el botón verde con un guión para alejar o en las flechas verdes para mapas adyacentes.


METAR-TAF: